sensor_id;sensor_type;location;lat;lon;timestamp;P1;durP1;ratioP1;P2;durP2;ratioP2
68353;SDS011;55274;43.060;25.618;2023-04-23T00:00:15;13.40;;;6.70;;
68353;SDS011;55274;43.060;25.618;2023-04-23T00:02:44;15.38;;;6.97;;
68353;SDS011;55274;43.060;25.618;2023-04-23T00:05:15;13.35;;;6.57;;
68353;SDS011;55274;43.060;25.618;2023-04-23T00:07:41;12.95;;;6.80;;
68353;SDS011;55274;43.060;25.618;2023-04-23T00:10:07;14.02;;;6.63;;
68353;SDS011;55274;43.060;25.618;2023-04-23T00:12:34;17.52;;;6.75;;
68353;SDS011;55274;43.060;25.618;2023-04-23T00:15:00;12.98;;;6.30;;
68353;SDS011;55274;43.060;25.618;2023-04-23T00:17:27;14.30;;;7.25;;
68353;SDS011;55274;43.060;25.618;2023-04-23T00:19:53;13.25;;;6.13;;
68353;SDS011;55274;43.060;25.618;2023-04-23T00:22:19;11.15;;;6.25;;
68353;SDS011;55274;43.060;25.618;2023-04-23T00:24:46;14.65;;;6.55;;
68353;SDS011;55274;43.060;25.618;2023-04-23T00:27:11;12.80;;;6.68;;
68353;SDS011;55274;43.060;25.618;2023-04-23T00:29:37;13.95;;;6.43;;
68353;SDS011;55274;43.060;25.618;2023-04-23T00:32:03;12.57;;;5.57;;
68353;SDS011;55274;43.060;25.618;2023-04-23T00:34:29;10.70;;;6.20;;
68353;SDS011;55274;43.060;25.618;2023-04-23T00:36:55;10.07;;;5.78;;
68353;SDS011;55274;43.060;25.618;2023-04-23T00:39:21;9.75;;;5.43;;
68353;SDS011;55274;43.060;25.618;2023-04-23T00:41:46;14.52;;;5.65;;
68353;SDS011;55274;43.060;25.618;2023-04-23T00:44:13;12.05;;;5.68;;
68353;SDS011;55274;43.060;25.618;2023-04-23T00:46:39;8.50;;;5.78;;
68353;SDS011;55274;43.060;25.618;2023-04-23T00:49:05;13.82;;;5.82;;
68353;SDS011;55274;43.060;25.618;2023-04-23T00:51:31;9.07;;;5.35;;
68353;SDS011;55274;43.060;25.618;2023-04-23T00:53:57;11.90;;;6.32;;
68353;SDS011;55274;43.060;25.618;2023-04-23T00:56:23;16.17;;;6.15;;
68353;SDS011;55274;43.060;25.618;2023-04-23T00:58:52;11.20;;;5.53;;
68353;SDS011;55274;43.060;25.618;2023-04-23T01:01:21;10.95;;;6.18;;
68353;SDS011;55274;43.060;25.618;2023-04-23T01:03:48;17.83;;;6.65;;
68353;SDS011;55274;43.060;25.618;2023-04-23T01:06:15;14.23;;;6.93;;
68353;SDS011;55274;43.060;25.618;2023-04-23T01:08:41;11.88;;;6.55;;
68353;SDS011;55274;43.060;25.618;2023-04-23T01:11:09;11.13;;;5.70;;
68353;SDS011;55274;43.060;25.618;2023-04-23T01:13:38;16.17;;;6.47;;
68353;SDS011;55274;43.060;25.618;2023-04-23T01:16:04;12.10;;;6.38;;
68353;SDS011;55274;43.060;25.618;2023-04-23T01:18:30;15.88;;;6.40;;
68353;SDS011;55274;43.060;25.618;2023-04-23T01:20:56;18.77;;;7.25;;
68353;SDS011;55274;43.060;25.618;2023-04-23T01:23:23;18.67;;;6.72;;
68353;SDS011;55274;43.060;25.618;2023-04-23T01:25:48;14.45;;;6.55;;
68353;SDS011;55274;43.060;25.618;2023-04-23T01:28:14;16.80;;;6.72;;
68353;SDS011;55274;43.060;25.618;2023-04-23T01:30:41;12.88;;;6.55;;
68353;SDS011;55274;43.060;25.618;2023-04-23T01:33:08;13.60;;;6.78;;
68353;SDS011;55274;43.060;25.618;2023-04-23T01:35:35;15.20;;;7.32;;
68353;SDS011;55274;43.060;25.618;2023-04-23T01:38:02;16.05;;;7.03;;
68353;SDS011;55274;43.060;25.618;2023-04-23T01:40:29;14.40;;;6.65;;
68353;SDS011;55274;43.060;25.618;2023-04-23T01:42:55;14.77;;;6.63;;
68353;SDS011;55274;43.060;25.618;2023-04-23T01:45:21;17.95;;;7.28;;
68353;SDS011;55274;43.060;25.618;2023-04-23T01:47:47;15.80;;;7.43;;
68353;SDS011;55274;43.060;25.618;2023-04-23T01:50:13;20.83;;;7.88;;
68353;SDS011;55274;43.060;25.618;2023-04-23T01:52:39;17.40;;;8.57;;
68353;SDS011;55274;43.060;25.618;2023-04-23T01:55:06;21.77;;;9.07;;
68353;SDS011;55274;43.060;25.618;2023-04-23T01:57:33;17.15;;;7.38;;
68353;SDS011;55274;43.060;25.618;2023-04-23T02:00:04;19.23;;;7.65;;
68353;SDS011;55274;43.060;25.618;2023-04-23T02:02:35;15.93;;;7.38;;
68353;SDS011;55274;43.060;25.618;2023-04-23T02:05:02;18.17;;;7.32;;
68353;SDS011;55274;43.060;25.618;2023-04-23T02:07:32;23.00;;;8.30;;
68353;SDS011;55274;43.060;25.618;2023-04-23T02:09:58;20.52;;;7.78;;
68353;SDS011;55274;43.060;25.618;2023-04-23T02:12:24;21.15;;;7.97;;
68353;SDS011;55274;43.060;25.618;2023-04-23T02:14:51;16.63;;;7.55;;
68353;SDS011;55274;43.060;25.618;2023-04-23T02:17:18;24.02;;;8.70;;
68353;SDS011;55274;43.060;25.618;2023-04-23T02:19:45;21.52;;;8.90;;
68353;SDS011;55274;43.060;25.618;2023-04-23T02:22:11;23.35;;;8.85;;
68353;SDS011;55274;43.060;25.618;2023-04-23T02:24:37;24.45;;;9.45;;
68353;SDS011;55274;43.060;25.618;2023-04-23T02:27:03;19.73;;;8.13;;
68353;SDS011;55274;43.060;25.618;2023-04-23T02:29:29;31.35;;;8.80;;
68353;SDS011;55274;43.060;25.618;2023-04-23T02:31:55;23.90;;;8.10;;
68353;SDS011;55274;43.060;25.618;2023-04-23T02:34:21;25.55;;;8.93;;
68353;SDS011;55274;43.060;25.618;2023-04-23T02:36:46;22.42;;;8.60;;
68353;SDS011;55274;43.060;25.618;2023-04-23T02:39:12;23.35;;;9.20;;
68353;SDS011;55274;43.060;25.618;2023-04-23T02:41:38;32.83;;;9.02;;
68353;SDS011;55274;43.060;25.618;2023-04-23T02:44:03;27.40;;;8.02;;
68353;SDS011;55274;43.060;25.618;2023-04-23T02:46:29;25.02;;;9.85;;
68353;SDS011;55274;43.060;25.618;2023-04-23T02:48:55;19.80;;;8.70;;
68353;SDS011;55274;43.060;25.618;2023-04-23T02:51:21;21.02;;;7.90;;
68353;SDS011;55274;43.060;25.618;2023-04-23T02:53:47;19.88;;;8.50;;
68353;SDS011;55274;43.060;25.618;2023-04-23T02:56:13;18.88;;;8.25;;
68353;SDS011;55274;43.060;25.618;2023-04-23T02:58:39;26.55;;;8.60;;
68353;SDS011;55274;43.060;25.618;2023-04-23T03:01:05;35.75;;;9.07;;
68353;SDS011;55274;43.060;25.618;2023-04-23T03:03:31;22.00;;;8.73;;
68353;SDS011;55274;43.060;25.618;2023-04-23T03:05:58;27.48;;;8.23;;
68353;SDS011;55274;43.060;25.618;2023-04-23T03:08:24;29.27;;;7.90;;
68353;SDS011;55274;43.060;25.618;2023-04-23T03:10:51;63.42;;;10.25;;
68353;SDS011;55274;43.060;25.618;2023-04-23T03:13:16;46.35;;;9.85;;
68353;SDS011;55274;43.060;25.618;2023-04-23T03:15:42;41.35;;;8.93;;
68353;SDS011;55274;43.060;25.618;2023-04-23T03:18:08;41.83;;;10.45;;
68353;SDS011;55274;43.060;25.618;2023-04-23T03:20:34;26.08;;;7.97;;
68353;SDS011;55274;43.060;25.618;2023-04-23T03:23:00;24.98;;;8.82;;
68353;SDS011;55274;43.060;25.618;2023-04-23T03:25:26;21.35;;;7.00;;
68353;SDS011;55274;43.060;25.618;2023-04-23T03:27:52;17.48;;;6.30;;
68353;SDS011;55274;43.060;25.618;2023-04-23T03:30:19;13.18;;;5.70;;
68353;SDS011;55274;43.060;25.618;2023-04-23T03:32:45;21.45;;;6.78;;
68353;SDS011;55274;43.060;25.618;2023-04-23T03:35:11;14.38;;;6.10;;
68353;SDS011;55274;43.060;25.618;2023-04-23T03:37:36;19.63;;;7.05;;
68353;SDS011;55274;43.060;25.618;2023-04-23T03:40:02;22.00;;;7.40;;
68353;SDS011;55274;43.060;25.618;2023-04-23T03:42:32;44.92;;;8.88;;
68353;SDS011;55274;43.060;25.618;2023-04-23T03:44:58;24.63;;;7.43;;
68353;SDS011;55274;43.060;25.618;2023-04-23T03:47:24;36.20;;;8.07;;
68353;SDS011;55274;43.060;25.618;2023-04-23T03:49:51;36.70;;;7.68;;
68353;SDS011;55274;43.060;25.618;2023-04-23T03:52:17;24.17;;;7.43;;
68353;SDS011;55274;43.060;25.618;2023-04-23T03:54:43;27.98;;;7.95;;
68353;SDS011;55274;43.060;25.618;2023-04-23T03:57:08;20.00;;;7.15;;
68353;SDS011;55274;43.060;25.618;2023-04-23T03:59:37;27.83;;;7.95;;
68353;SDS011;55274;43.060;25.618;2023-04-23T04:02:03;39.70;;;9.45;;
68353;SDS011;55274;43.060;25.618;2023-04-23T04:04:30;26.80;;;8.57;;
68353;SDS011;55274;43.060;25.618;2023-04-23T04:06:57;48.20;;;11.68;;
68353;SDS011;55274;43.060;25.618;2023-04-23T04:09:26;87.40;;;19.50;;
68353;SDS011;55274;43.060;25.618;2023-04-23T04:11:52;167.88;;;28.83;;
68353;SDS011;55274;43.060;25.618;2023-04-23T04:14:19;127.85;;;19.95;;
68353;SDS011;55274;43.060;25.618;2023-04-23T04:16:45;70.15;;;20.30;;
68353;SDS011;55274;43.060;25.618;2023-04-23T04:19:11;78.10;;;19.80;;
68353;SDS011;55274;43.060;25.618;2023-04-23T04:21:36;69.95;;;17.00;;
68353;SDS011;55274;43.060;25.618;2023-04-23T04:24:02;76.43;;;16.83;;
68353;SDS011;55274;43.060;25.618;2023-04-23T04:26:29;78.35;;;16.33;;
68353;SDS011;55274;43.060;25.618;2023-04-23T04:28:56;69.80;;;15.90;;
68353;SDS011;55274;43.060;25.618;2023-04-23T04:31:24;93.88;;;21.52;;
68353;SDS011;55274;43.060;25.618;2023-04-23T04:33:55;94.47;;;22.52;;
68353;SDS011;55274;43.060;25.618;2023-04-23T04:36:22;84.15;;;21.50;;
68353;SDS011;55274;43.060;25.618;2023-04-23T04:38:52;76.10;;;21.58;;
68353;SDS011;55274;43.060;25.618;2023-04-23T04:41:23;80.65;;;18.40;;
68353;SDS011;55274;43.060;25.618;2023-04-23T04:43:52;86.03;;;14.90;;
68353;SDS011;55274;43.060;25.618;2023-04-23T04:46:19;47.60;;;12.95;;
68353;SDS011;55274;43.060;25.618;2023-04-23T04:48:48;105.90;;;16.48;;
68353;SDS011;55274;43.060;25.618;2023-04-23T04:51:14;59.95;;;15.20;;
68353;SDS011;55274;43.060;25.618;2023-04-23T04:53:40;97.80;;;17.02;;
68353;SDS011;55274;43.060;25.618;2023-04-23T04:56:06;79.63;;;17.45;;
68353;SDS011;55274;43.060;25.618;2023-04-23T04:58:32;65.15;;;14.55;;
68353;SDS011;55274;43.060;25.618;2023-04-23T05:00:58;71.30;;;15.00;;
68353;SDS011;55274;43.060;25.618;2023-04-23T05:03:25;78.32;;;15.52;;
68353;SDS011;55274;43.060;25.618;2023-04-23T05:05:51;85.65;;;16.92;;
68353;SDS011;55274;43.060;25.618;2023-04-23T05:08:20;59.13;;;15.82;;
68353;SDS011;55274;43.060;25.618;2023-04-23T05:10:47;50.38;;;15.07;;
68353;SDS011;55274;43.060;25.618;2023-04-23T05:13:14;47.88;;;15.85;;
68353;SDS011;55274;43.060;25.618;2023-04-23T05:15:40;60.65;;;15.60;;
68353;SDS011;55274;43.060;25.618;2023-04-23T05:18:08;66.88;;;18.08;;
68353;SDS011;55274;43.060;25.618;2023-04-23T05:20:35;97.45;;;28.13;;
68353;SDS011;55274;43.060;25.618;2023-04-23T05:23:01;79.68;;;26.75;;
68353;SDS011;55274;43.060;25.618;2023-04-23T05:25:30;77.78;;;24.38;;
68353;SDS011;55274;43.060;25.618;2023-04-23T05:27:56;79.90;;;26.13;;
68353;SDS011;55274;43.060;25.618;2023-04-23T05:30:22;71.68;;;24.48;;
68353;SDS011;55274;43.060;25.618;2023-04-23T05:32:48;66.68;;;22.30;;
68353;SDS011;55274;43.060;25.618;2023-04-23T05:35:14;56.83;;;21.65;;
68353;SDS011;55274;43.060;25.618;2023-04-23T05:37:40;78.40;;;21.05;;
68353;SDS011;55274;43.060;25.618;2023-04-23T05:40:07;64.82;;;17.92;;
68353;SDS011;55274;43.060;25.618;2023-04-23T05:42:33;49.22;;;18.13;;
68353;SDS011;55274;43.060;25.618;2023-04-23T05:45:00;45.42;;;16.70;;
68353;SDS011;55274;43.060;25.618;2023-04-23T05:47:26;39.03;;;16.13;;
68353;SDS011;55274;43.060;25.618;2023-04-23T05:49:52;40.70;;;16.67;;
68353;SDS011;55274;43.060;25.618;2023-04-23T05:52:18;43.80;;;17.25;;
68353;SDS011;55274;43.060;25.618;2023-04-23T05:54:44;48.60;;;19.27;;
68353;SDS011;55274;43.060;25.618;2023-04-23T05:57:10;58.17;;;23.13;;
68353;SDS011;55274;43.060;25.618;2023-04-23T05:59:36;47.70;;;20.13;;
68353;SDS011;55274;43.060;25.618;2023-04-23T06:02:02;61.67;;;21.13;;
68353;SDS011;55274;43.060;25.618;2023-04-23T06:04:28;49.03;;;21.75;;
68353;SDS011;55274;43.060;25.618;2023-04-23T06:06:53;52.58;;;22.17;;
68353;SDS011;55274;43.060;25.618;2023-04-23T06:09:19;49.28;;;20.77;;
68353;SDS011;55274;43.060;25.618;2023-04-23T06:11:45;41.60;;;19.20;;
68353;SDS011;55274;43.060;25.618;2023-04-23T06:14:11;39.35;;;19.10;;
68353;SDS011;55274;43.060;25.618;2023-04-23T06:16:36;28.27;;;14.40;;
68353;SDS011;55274;43.060;25.618;2023-04-23T06:19:02;29.17;;;12.32;;
68353;SDS011;55274;43.060;25.618;2023-04-23T06:21:28;20.80;;;12.05;;
68353;SDS011;55274;43.060;25.618;2023-04-23T06:23:54;27.48;;;11.90;;
68353;SDS011;55274;43.060;25.618;2023-04-23T06:26:20;29.23;;;12.75;;
68353;SDS011;55274;43.060;25.618;2023-04-23T06:28:45;35.53;;;16.90;;
68353;SDS011;55274;43.060;25.618;2023-04-23T06:31:11;44.20;;;20.55;;
68353;SDS011;55274;43.060;25.618;2023-04-23T06:33:37;45.50;;;19.85;;
68353;SDS011;55274;43.060;25.618;2023-04-23T06:36:04;55.90;;;23.70;;
68353;SDS011;55274;43.060;25.618;2023-04-23T06:38:30;50.13;;;22.13;;
68353;SDS011;55274;43.060;25.618;2023-04-23T06:40:56;47.75;;;21.05;;
68353;SDS011;55274;43.060;25.618;2023-04-23T06:43:23;33.88;;;16.30;;
68353;SDS011;55274;43.060;25.618;2023-04-23T06:45:48;37.83;;;17.63;;
68353;SDS011;55274;43.060;25.618;2023-04-23T06:48:14;24.55;;;11.77;;
68353;SDS011;55274;43.060;25.618;2023-04-23T06:50:41;24.95;;;11.80;;
68353;SDS011;55274;43.060;25.618;2023-04-23T06:53:06;17.90;;;9.55;;
68353;SDS011;55274;43.060;25.618;2023-04-23T06:55:32;13.00;;;6.82;;
68353;SDS011;55274;43.060;25.618;2023-04-23T06:57:58;19.33;;;8.07;;
68353;SDS011;55274;43.060;25.618;2023-04-23T07:00:24;18.65;;;9.18;;
68353;SDS011;55274;43.060;25.618;2023-04-23T07:02:50;24.40;;;9.43;;
68353;SDS011;55274;43.060;25.618;2023-04-23T07:05:16;18.05;;;9.88;;
68353;SDS011;55274;43.060;25.618;2023-04-23T07:07:43;32.20;;;14.90;;
68353;SDS011;55274;43.060;25.618;2023-04-23T07:10:09;40.80;;;16.75;;
68353;SDS011;55274;43.060;25.618;2023-04-23T07:12:36;33.45;;;17.52;;
68353;SDS011;55274;43.060;25.618;2023-04-23T07:15:03;51.15;;;17.15;;
68353;SDS011;55274;43.060;25.618;2023-04-23T07:17:30;33.10;;;17.45;;
68353;SDS011;55274;43.060;25.618;2023-04-23T07:19:56;32.70;;;15.18;;
68353;SDS011;55274;43.060;25.618;2023-04-23T07:22:22;145.90;;;23.02;;
68353;SDS011;55274;43.060;25.618;2023-04-23T07:24:49;26.80;;;12.48;;
68353;SDS011;55274;43.060;25.618;2023-04-23T07:27:15;17.90;;;10.02;;
68353;SDS011;55274;43.060;25.618;2023-04-23T07:29:41;21.58;;;10.88;;
68353;SDS011;55274;43.060;25.618;2023-04-23T07:32:07;16.67;;;8.95;;
68353;SDS011;55274;43.060;25.618;2023-04-23T07:34:32;17.08;;;8.10;;
68353;SDS011;55274;43.060;25.618;2023-04-23T07:37:00;10.73;;;5.95;;
68353;SDS011;55274;43.060;25.618;2023-04-23T07:39:26;14.82;;;5.50;;
68353;SDS011;55274;43.060;25.618;2023-04-23T07:41:52;13.77;;;6.80;;
68353;SDS011;55274;43.060;25.618;2023-04-23T07:44:18;16.20;;;7.80;;
68353;SDS011;55274;43.060;25.618;2023-04-23T07:46:44;17.48;;;8.40;;
68353;SDS011;55274;43.060;25.618;2023-04-23T07:49:09;13.88;;;7.63;;
68353;SDS011;55274;43.060;25.618;2023-04-23T07:51:35;10.57;;;6.68;;
68353;SDS011;55274;43.060;25.618;2023-04-23T07:54:01;12.52;;;6.57;;
68353;SDS011;55274;43.060;25.618;2023-04-23T07:56:27;12.55;;;6.40;;
68353;SDS011;55274;43.060;25.618;2023-04-23T07:58:56;17.67;;;9.52;;
68353;SDS011;55274;43.060;25.618;2023-04-23T08:01:22;12.13;;;3.83;;
68353;SDS011;55274;43.060;25.618;2023-04-23T08:03:48;11.40;;;5.60;;
68353;SDS011;55274;43.060;25.618;2023-04-23T08:06:14;12.48;;;5.70;;
68353;SDS011;55274;43.060;25.618;2023-04-23T08:08:40;8.57;;;3.80;;
68353;SDS011;55274;43.060;25.618;2023-04-23T08:11:06;7.32;;;3.22;;
68353;SDS011;55274;43.060;25.618;2023-04-23T08:13:32;6.32;;;3.33;;
68353;SDS011;55274;43.060;25.618;2023-04-23T08:15:58;8.35;;;4.13;;
68353;SDS011;55274;43.060;25.618;2023-04-23T08:18:24;6.60;;;2.85;;
68353;SDS011;55274;43.060;25.618;2023-04-23T08:20:50;6.28;;;2.30;;
68353;SDS011;55274;43.060;25.618;2023-04-23T08:23:16;7.00;;;2.40;;
68353;SDS011;55274;43.060;25.618;2023-04-23T08:25:42;5.25;;;2.05;;
68353;SDS011;55274;43.060;25.618;2023-04-23T08:28:07;4.10;;;2.30;;
68353;SDS011;55274;43.060;25.618;2023-04-23T08:30:33;4.82;;;2.45;;
68353;SDS011;55274;43.060;25.618;2023-04-23T08:32:59;5.25;;;1.73;;
68353;SDS011;55274;43.060;25.618;2023-04-23T08:35:25;7.15;;;2.13;;
68353;SDS011;55274;43.060;25.618;2023-04-23T08:37:51;6.82;;;2.08;;
68353;SDS011;55274;43.060;25.618;2023-04-23T08:40:16;3.70;;;1.90;;
68353;SDS011;55274;43.060;25.618;2023-04-23T08:45:20;2.92;;;1.50;;
68353;SDS011;55274;43.060;25.618;2023-04-23T08:47:46;3.83;;;2.00;;
68353;SDS011;55274;43.060;25.618;2023-04-23T08:50:15;7.93;;;1.63;;
68353;SDS011;55274;43.060;25.618;2023-04-23T08:52:49;5.70;;;1.80;;
68353;SDS011;55274;43.060;25.618;2023-04-23T08:55:18;5.25;;;1.70;;
68353;SDS011;55274;43.060;25.618;2023-04-23T08:57:45;2.70;;;1.48;;
68353;SDS011;55274;43.060;25.618;2023-04-23T09:00:14;5.82;;;1.58;;
68353;SDS011;55274;43.060;25.618;2023-04-23T09:02:42;5.53;;;1.50;;
68353;SDS011;55274;43.060;25.618;2023-04-23T09:05:10;7.35;;;1.73;;
68353;SDS011;55274;43.060;25.618;2023-04-23T09:07:36;7.22;;;1.52;;
68353;SDS011;55274;43.060;25.618;2023-04-23T09:10:03;4.35;;;1.52;;
68353;SDS011;55274;43.060;25.618;2023-04-23T09:12:31;3.78;;;1.73;;
68353;SDS011;55274;43.060;25.618;2023-04-23T09:15:02;9.57;;;1.60;;
68353;SDS011;55274;43.060;25.618;2023-04-23T09:17:35;4.43;;;1.73;;
68353;SDS011;55274;43.060;25.618;2023-04-23T09:20:05;3.90;;;1.60;;
68353;SDS011;55274;43.060;25.618;2023-04-23T09:25:08;3.28;;;1.80;;
68353;SDS011;55274;43.060;25.618;2023-04-23T09:27:35;5.30;;;1.80;;
68353;SDS011;55274;43.060;25.618;2023-04-23T09:30:02;3.95;;;1.70;;
68353;SDS011;55274;43.060;25.618;2023-04-23T09:32:31;2.90;;;1.65;;
68353;SDS011;55274;43.060;25.618;2023-04-23T09:34:58;4.95;;;1.75;;
68353;SDS011;55274;43.060;25.618;2023-04-23T09:37:27;6.07;;;1.70;;
68353;SDS011;55274;43.060;25.618;2023-04-23T09:39:52;3.78;;;1.70;;
68353;SDS011;55274;43.060;25.618;2023-04-23T09:42:22;3.95;;;1.67;;
68353;SDS011;55274;43.060;25.618;2023-04-23T09:44:59;3.85;;;1.98;;
68353;SDS011;55274;43.060;25.618;2023-04-23T09:47:36;6.70;;;2.00;;
68353;SDS011;55274;43.060;25.618;2023-04-23T09:50:04;3.85;;;1.58;;
68353;SDS011;55274;43.060;25.618;2023-04-23T09:52:31;3.10;;;1.33;;
68353;SDS011;55274;43.060;25.618;2023-04-23T09:55:00;5.82;;;1.45;;
68353;SDS011;55274;43.060;25.618;2023-04-23T09:57:26;3.03;;;1.60;;
68353;SDS011;55274;43.060;25.618;2023-04-23T09:59:55;4.25;;;1.75;;
68353;SDS011;55274;43.060;25.618;2023-04-23T10:02:26;4.95;;;1.50;;
68353;SDS011;55274;43.060;25.618;2023-04-23T10:04:53;3.25;;;1.65;;
68353;SDS011;55274;43.060;25.618;2023-04-23T10:07:19;3.42;;;1.70;;
68353;SDS011;55274;43.060;25.618;2023-04-23T10:09:45;6.80;;;2.78;;
68353;SDS011;55274;43.060;25.618;2023-04-23T10:12:12;4.75;;;2.30;;
68353;SDS011;55274;43.060;25.618;2023-04-23T10:14:38;4.32;;;1.77;;
68353;SDS011;55274;43.060;25.618;2023-04-23T10:17:05;2.95;;;1.50;;
68353;SDS011;55274;43.060;25.618;2023-04-23T10:19:32;3.95;;;1.88;;
68353;SDS011;55274;43.060;25.618;2023-04-23T10:21:59;3.97;;;1.95;;
68353;SDS011;55274;43.060;25.618;2023-04-23T10:24:32;4.55;;;1.67;;
68353;SDS011;55274;43.060;25.618;2023-04-23T10:27:03;4.55;;;1.77;;
68353;SDS011;55274;43.060;25.618;2023-04-23T10:29:33;8.07;;;1.58;;
68353;SDS011;55274;43.060;25.618;2023-04-23T10:32:01;3.85;;;1.65;;
68353;SDS011;55274;43.060;25.618;2023-04-23T10:34:29;3.53;;;1.90;;
68353;SDS011;55274;43.060;25.618;2023-04-23T10:36:56;4.40;;;1.95;;
68353;SDS011;55274;43.060;25.618;2023-04-23T10:39:27;7.35;;;1.85;;
68353;SDS011;55274;43.060;25.618;2023-04-23T10:41:58;3.67;;;1.60;;
68353;SDS011;55274;43.060;25.618;2023-04-23T10:44:36;5.97;;;1.83;;
68353;SDS011;55274;43.060;25.618;2023-04-23T10:47:03;5.43;;;1.92;;
68353;SDS011;55274;43.060;25.618;2023-04-23T10:49:30;2.30;;;1.70;;
68353;SDS011;55274;43.060;25.618;2023-04-23T10:51:57;5.63;;;1.80;;
68353;SDS011;55274;43.060;25.618;2023-04-23T10:54:34;5.07;;;1.70;;
68353;SDS011;55274;43.060;25.618;2023-04-23T10:59:31;2.80;;;1.50;;
68353;SDS011;55274;43.060;25.618;2023-04-23T11:02:04;5.78;;;1.80;;
68353;SDS011;55274;43.060;25.618;2023-04-23T11:04:31;7.13;;;2.20;;
68353;SDS011;55274;43.060;25.618;2023-04-23T11:07:05;8.93;;;2.25;;
68353;SDS011;55274;43.060;25.618;2023-04-23T11:14:49;4.07;;;1.80;;
68353;SDS011;55274;43.060;25.618;2023-04-23T11:17:16;4.97;;;1.67;;
68353;SDS011;55274;43.060;25.618;2023-04-23T11:22:43;4.05;;;1.95;;
68353;SDS011;55274;43.060;25.618;2023-04-23T11:25:11;6.88;;;1.70;;
68353;SDS011;55274;43.060;25.618;2023-04-23T11:27:39;4.55;;;1.75;;
68353;SDS011;55274;43.060;25.618;2023-04-23T11:32:36;3.63;;;1.63;;
68353;SDS011;55274;43.060;25.618;2023-04-23T11:35:02;7.38;;;1.65;;
68353;SDS011;55274;43.060;25.618;2023-04-23T11:37:29;5.75;;;1.80;;
68353;SDS011;55274;43.060;25.618;2023-04-23T11:39:55;6.88;;;1.75;;
68353;SDS011;55274;43.060;25.618;2023-04-23T11:42:21;3.22;;;1.67;;
68353;SDS011;55274;43.060;25.618;2023-04-23T11:44:47;7.32;;;1.80;;
68353;SDS011;55274;43.060;25.618;2023-04-23T11:47:13;6.25;;;1.88;;
68353;SDS011;55274;43.060;25.618;2023-04-23T11:49:43;4.18;;;1.60;;
68353;SDS011;55274;43.060;25.618;2023-04-23T11:52:09;4.95;;;1.60;;
68353;SDS011;55274;43.060;25.618;2023-04-23T11:54:38;4.15;;;1.42;;
68353;SDS011;55274;43.060;25.618;2023-04-23T11:57:05;5.43;;;1.70;;
68353;SDS011;55274;43.060;25.618;2023-04-23T11:59:31;9.90;;;1.77;;
68353;SDS011;55274;43.060;25.618;2023-04-23T12:01:57;4.22;;;1.77;;
68353;SDS011;55274;43.060;25.618;2023-04-23T12:04:28;3.83;;;1.90;;
68353;SDS011;55274;43.060;25.618;2023-04-23T12:06:54;3.67;;;2.05;;
68353;SDS011;55274;43.060;25.618;2023-04-23T12:09:22;2.67;;;1.75;;
68353;SDS011;55274;43.060;25.618;2023-04-23T12:11:49;3.88;;;1.80;;
68353;SDS011;55274;43.060;25.618;2023-04-23T12:14:16;3.63;;;1.88;;
68353;SDS011;55274;43.060;25.618;2023-04-23T12:16:45;20.38;;;2.55;;
68353;SDS011;55274;43.060;25.618;2023-04-23T12:19:15;6.55;;;1.83;;
68353;SDS011;55274;43.060;25.618;2023-04-23T12:21:52;6.93;;;1.80;;
68353;SDS011;55274;43.060;25.618;2023-04-23T12:24:24;3.63;;;1.92;;
68353;SDS011;55274;43.060;25.618;2023-04-23T12:26:52;4.95;;;1.67;;
68353;SDS011;55274;43.060;25.618;2023-04-23T12:29:23;24.77;;;3.05;;
68353;SDS011;55274;43.060;25.618;2023-04-23T12:31:51;7.05;;;1.58;;
68353;SDS011;55274;43.060;25.618;2023-04-23T12:34:18;8.70;;;2.00;;
68353;SDS011;55274;43.060;25.618;2023-04-23T12:36:49;6.32;;;1.80;;
68353;SDS011;55274;43.060;25.618;2023-04-23T12:39:27;6.30;;;1.92;;
68353;SDS011;55274;43.060;25.618;2023-04-23T12:41:55;4.70;;;1.80;;
68353;SDS011;55274;43.060;25.618;2023-04-23T12:44:21;7.10;;;1.83;;
68353;SDS011;55274;43.060;25.618;2023-04-23T12:46:57;7.30;;;2.20;;
68353;SDS011;55274;43.060;25.618;2023-04-23T12:49:27;4.53;;;1.55;;
68353;SDS011;55274;43.060;25.618;2023-04-23T12:51:54;5.38;;;2.00;;
68353;SDS011;55274;43.060;25.618;2023-04-23T12:54:26;4.32;;;1.60;;
68353;SDS011;55274;43.060;25.618;2023-04-23T12:56:57;11.00;;;1.92;;
68353;SDS011;55274;43.060;25.618;2023-04-23T12:59:23;8.63;;;2.00;;
68353;SDS011;55274;43.060;25.618;2023-04-23T13:01:50;7.00;;;2.00;;
68353;SDS011;55274;43.060;25.618;2023-04-23T13:04:16;3.40;;;1.73;;
68353;SDS011;55274;43.060;25.618;2023-04-23T13:06:42;4.20;;;1.90;;
68353;SDS011;55274;43.060;25.618;2023-04-23T13:09:08;6.65;;;2.20;;
68353;SDS011;55274;43.060;25.618;2023-04-23T13:11:35;4.18;;;1.98;;
68353;SDS011;55274;43.060;25.618;2023-04-23T13:14:02;11.05;;;2.25;;
68353;SDS011;55274;43.060;25.618;2023-04-23T13:16:28;7.72;;;2.22;;
68353;SDS011;55274;43.060;25.618;2023-04-23T13:18:54;13.00;;;2.85;;
68353;SDS011;55274;43.060;25.618;2023-04-23T13:21:20;4.85;;;2.22;;
68353;SDS011;55274;43.060;25.618;2023-04-23T13:23:45;7.03;;;2.45;;
68353;SDS011;55274;43.060;25.618;2023-04-23T13:26:11;4.85;;;2.30;;
68353;SDS011;55274;43.060;25.618;2023-04-23T13:28:38;7.53;;;2.72;;
68353;SDS011;55274;43.060;25.618;2023-04-23T13:31:04;8.07;;;2.90;;
68353;SDS011;55274;43.060;25.618;2023-04-23T13:33:30;5.40;;;2.08;;
68353;SDS011;55274;43.060;25.618;2023-04-23T13:35:57;5.97;;;2.58;;
68353;SDS011;55274;43.060;25.618;2023-04-23T13:38:24;6.10;;;2.45;;
68353;SDS011;55274;43.060;25.618;2023-04-23T13:40:51;4.75;;;2.45;;
68353;SDS011;55274;43.060;25.618;2023-04-23T13:43:17;9.52;;;3.30;;
68353;SDS011;55274;43.060;25.618;2023-04-23T13:45:44;23.35;;;4.80;;
68353;SDS011;55274;43.060;25.618;2023-04-23T13:48:11;23.05;;;4.95;;
68353;SDS011;55274;43.060;25.618;2023-04-23T13:50:38;14.13;;;3.50;;
68353;SDS011;55274;43.060;25.618;2023-04-23T13:53:04;12.50;;;2.60;;
68353;SDS011;55274;43.060;25.618;2023-04-23T13:55:30;10.68;;;2.65;;
68353;SDS011;55274;43.060;25.618;2023-04-23T13:57:56;10.77;;;2.15;;
68353;SDS011;55274;43.060;25.618;2023-04-23T14:00:23;8.88;;;2.25;;
68353;SDS011;55274;43.060;25.618;2023-04-23T14:02:51;11.35;;;2.40;;
68353;SDS011;55274;43.060;25.618;2023-04-23T14:05:17;2.80;;;1.77;;
68353;SDS011;55274;43.060;25.618;2023-04-23T14:07:42;4.30;;;3.28;;
68353;SDS011;55274;43.060;25.618;2023-04-23T14:10:09;7.03;;;1.90;;
68353;SDS011;55274;43.060;25.618;2023-04-23T14:12:35;4.93;;;2.70;;
68353;SDS011;55274;43.060;25.618;2023-04-23T14:15:03;6.28;;;2.08;;
68353;SDS011;55274;43.060;25.618;2023-04-23T14:17:30;6.72;;;1.80;;
68353;SDS011;55274;43.060;25.618;2023-04-23T14:19:56;4.63;;;1.92;;
68353;SDS011;55274;43.060;25.618;2023-04-23T14:22:22;6.93;;;2.28;;
68353;SDS011;55274;43.060;25.618;2023-04-23T14:24:54;18.50;;;2.33;;
68353;SDS011;55274;43.060;25.618;2023-04-23T14:27:25;5.40;;;1.73;;
68353;SDS011;55274;43.060;25.618;2023-04-23T14:32:20;4.90;;;1.80;;
68353;SDS011;55274;43.060;25.618;2023-04-23T14:34:46;6.43;;;2.20;;
68353;SDS011;55274;43.060;25.618;2023-04-23T14:37:11;4.03;;;1.85;;
68353;SDS011;55274;43.060;25.618;2023-04-23T14:39:38;5.15;;;1.90;;
68353;SDS011;55274;43.060;25.618;2023-04-23T14:42:04;4.90;;;1.85;;